Terminal Aerodrome Forecast
Issued by NWS

Home | Current Version | Previous Version | Text Only | Print | Product List | Glossary On
Versions: 1 2 3 4 5 6 7 8 9 10 11 12 13 14 15 16 17
000
FTUS44 KMAF 200700 AAA
TAFFST
TAF AMD
KFST 200716Z 2007/2106 09008KT P6SM SCT035 BKN090
     FM200900 15010KT P6SM OVC035
     FM202100 16010KT P6SM BKN050=

USA.gov is the U.S. government's official web portal to all federal, state and local government web resources and services.